.
WxDataArchive / Data Records for 2013-04-14
2013-04-13 April 2013 2013-04-15

Data Records for Sunday, 14 April 2013

Time	Temp	Chill	HIndex	Humid	Dewpt	 Wind 	HiWind	WindDir	Rain 	Barom 
-----	----	-----	------	-----	-----	------	------	-------	-----	----- 
00:00	36.5	36.5	36.5	78	30.3	0	0	---	0.00	30.012 
00:05	36.3	36.3	36.3	79	30.4	0	0	---	0.00	30.012 
00:10	36.2	36.2	36.2	80	30.6	0	0	---	0.00	30.012 
00:15	36.0	36.0	36.0	80	30.4	0	0	---	0.00	30.016 
00:20	35.9	35.9	35.9	81	30.6	0	0	---	0.00	30.016 
00:25	35.6	35.6	35.6	81	30.4	0	0	---	0.00	30.016 
00:30	35.5	35.5	35.5	81	30.3	0	0	---	0.00	30.022 
00:35	35.2	35.2	35.2	82	30.3	0	0	---	0.00	30.022 
00:40	35.0	35.0	35.0	82	30.1	0	0	---	0.00	30.022 
00:45	35.0	35.0	35.0	83	30.4	0	0	---	0.00	30.017 
00:50	34.9	34.9	34.9	83	30.3	0	0	---	0.00	30.017 
00:55	34.7	34.7	34.7	84	30.4	0	0	---	0.00	30.017 
01:00	34.6	34.6	34.6	84	30.3	0	0	---	0.00	30.015 
01:05	34.6	34.6	34.6	85	30.6	0	0	---	0.00	30.015 
01:10	34.6	34.6	34.6	85	30.6	0	0	---	0.00	30.015 
01:15	34.7	34.7	34.7	85	30.7	0	0	---	0.00	30.025 
01:20	34.7	34.7	34.7	86	30.9	0	0	---	0.00	30.025 
01:25	34.7	34.7	34.7	86	30.9	0	0	---	0.00	30.025 
01:30	34.7	34.7	34.7	86	30.9	0	0	---	0.00	30.026 
01:35	34.9	34.9	34.9	86	31.1	0	0	---	0.00	30.026 
01:40	35.0	35.0	35.0	87	31.5	0	0	---	0.00	30.026 
01:45	35.3	35.3	35.3	87	31.8	0	0	---	0.00	30.026 
01:50	35.5	35.5	35.5	87	32.0	0	0	---	0.00	30.026 
01:55	35.6	35.6	35.6	87	32.1	0	0	---	0.00	30.026 
02:00	35.8	35.8	35.8	87	32.3	0	0	---	0.00	30.019 
02:05	35.9	35.9	35.9	87	32.4	0	0	---	0.00	30.019 
02:10	36.0	36.0	36.0	87	32.5	0	0	---	0.00	30.019 
02:15	36.2	36.2	36.2	87	32.7	0	0	---	0.00	30.025 
02:20	36.3	36.3	36.3	87	32.8	0	0	---	0.00	30.025 
02:25	36.3	36.3	36.3	87	32.8	0	0	---	0.00	30.025 
02:30	36.5	36.5	36.5	87	33.0	0	0	---	0.00	30.014 
02:35	36.6	36.6	36.6	87	33.1	0	0	---	0.00	30.014 
02:40	36.6	36.6	36.6	87	33.1	0	0	---	0.00	30.014 
02:45	36.8	36.8	36.8	87	33.3	0	0	---	0.00	30.017 
02:50	36.8	36.8	36.8	87	33.3	0	0	---	0.00	30.017 
02:55	36.9	36.9	36.9	87	33.4	0	0	---	0.00	30.017 
03:00	36.9	36.9	36.9	87	33.4	0	0	---	0.00	30.014 
03:05	37.0	37.0	37.0	87	33.5	0	0	---	0.00	30.014 
03:10	37.0	37.0	37.0	87	33.5	0	0	---	0.00	30.014 
03:15	37.0	37.0	37.0	86	33.2	0	0	---	0.00	30.011 
03:20	37.0	37.0	37.0	86	33.2	0	0	---	0.00	30.011 
03:25	37.0	37.0	37.0	86	33.2	0	0	---	0.00	30.011 
03:30	37.0	37.0	37.0	86	33.2	0	0	---	0.00	30.012 
03:35	37.0	37.0	37.0	86	33.2	0	0	---	0.00	30.012 
03:40	37.2	37.2	37.2	86	33.4	0	0	---	0.00	30.012 
03:45	37.2	37.2	37.2	86	33.4	0	0	---	0.00	30.012 
03:50	37.2	37.2	37.2	86	33.4	0	0	---	0.00	30.012 
03:55	37.2	37.2	37.2	86	33.4	0	0	---	0.00	30.012 
04:00	37.2	37.2	37.2	87	33.7	0	0	---	0.00	30.020 
04:05	37.3	37.3	37.3	87	33.8	0	1	248	0.00	30.020 
04:10	37.3	37.3	37.3	87	33.8	0	0	---	0.00	30.020 
04:15	37.3	37.3	37.3	87	33.8	0	0	---	0.00	30.015 
04:20	37.3	37.3	37.3	87	33.8	0	0	---	0.00	30.015 
04:25	37.5	37.5	37.5	87	34.0	0	0	---	0.00	30.015 
04:30	37.5	37.5	37.5	87	34.0	0	0	---	0.00	30.024 
04:35	37.5	37.5	37.5	87	34.0	0	0	---	0.00	30.024 
04:40	37.5	37.5	37.5	87	34.0	0	0	---	0.00	30.024 
04:45	37.6	37.6	37.6	87	34.1	0	0	---	0.00	30.026 
04:50	37.6	37.6	37.6	87	34.1	0	0	---	0.00	30.026 
04:55	37.6	37.6	37.6	86	33.8	0	0	---	0.00	30.026 
05:00	37.6	37.6	37.6	86	33.8	0	0	---	0.00	30.037 
05:05	37.6	37.6	37.6	86	33.8	0	0	---	0.00	30.037 
05:10	37.6	37.6	37.6	86	33.8	0	0	---	0.00	30.037 
05:15	37.5	37.5	37.5	86	33.7	0	0	---	0.00	30.040 
05:20	37.3	37.3	37.3	86	33.5	0	0	---	0.00	30.040 
05:25	37.3	37.3	37.3	86	33.5	0	0	---	0.00	30.040 
05:30	37.3	37.3	37.3	86	33.5	0	0	---	0.00	30.042 
05:35	37.3	37.3	37.3	86	33.5	0	0	---	0.00	30.042 
05:40	37.5	37.5	37.5	86	33.7	0	0	---	0.00	30.042 
05:45	37.5	37.5	37.5	86	33.7	0	0	---	0.00	30.040 
05:50	37.5	37.5	37.5	86	33.7	0	0	---	0.00	30.040 
05:55	37.6	37.6	37.6	87	34.1	0	0	---	0.00	30.040 
06:00	37.8	37.8	37.8	87	34.3	0	0	---	0.00	30.041 
06:05	37.9	37.9	37.9	87	34.4	0	0	---	0.00	30.041 
06:10	38.0	38.0	38.0	86	34.2	0	0	---	0.00	30.041 
06:15	38.2	38.2	38.2	86	34.4	0	0	---	0.00	30.042 
06:20	38.2	38.2	38.2	86	34.4	0	0	---	0.00	30.042 
06:25	38.3	38.3	38.3	86	34.5	0	0	---	0.00	30.042 
06:30	38.5	38.5	38.5	86	34.7	0	1	248	0.00	30.042 
06:35	38.5	38.5	38.5	86	34.7	0	0	---	0.00	30.042 
06:40	38.6	38.6	38.6	86	34.8	0	0	---	0.00	30.042 
06:45	38.6	38.6	38.6	86	34.8	0	0	---	0.00	30.041 
06:50	38.6	38.6	38.6	86	34.8	0	0	---	0.00	30.041 
06:55	38.6	38.6	38.6	86	34.8	0	0	---	0.00	30.041 
07:00	38.6	38.6	38.6	86	34.8	0	0	---	0.00	30.042 
07:05	38.8	38.8	38.8	86	35.0	0	0	---	0.00	30.042 
07:10	38.8	38.8	38.8	86	35.0	0	1	248	0.00	30.042 
07:15	38.8	38.8	38.8	86	35.0	0	1	248	0.00	30.046 
07:20	38.8	38.8	38.8	86	35.0	0	1	248	0.00	30.046 
07:25	38.8	38.8	38.8	86	35.0	0	2	248	0.00	30.046 
07:30	38.8	38.8	38.8	85	34.7	1	3	248	0.00	30.040 
07:35	38.8	38.8	38.8	85	34.7	0	2	248	0.00	30.040 
07:40	38.8	38.8	38.8	84	34.4	1	2	248	0.00	30.040 
07:45	38.9	38.9	38.9	84	34.5	0	2	248	0.00	30.036 
07:50	39.1	39.1	39.1	84	34.7	2	4	248	0.00	30.036 
07:55	39.1	39.1	39.1	84	34.7	1	3	112	0.00	30.036 
08:00	39.2	39.2	39.2	84	34.8	1	3	112	0.00	30.034 
08:05	39.2	39.2	39.2	84	34.8	2	4	112	0.00	30.034 
08:10	39.3	39.3	39.3	84	34.9	0	3	112	0.00	30.034 
08:15	39.5	39.5	39.5	84	35.1	0	2	112	0.00	30.039 
08:20	39.6	39.6	39.6	84	35.2	0	2	112	0.00	30.039 
08:25	39.8	39.8	39.8	84	35.4	0	2	112	0.00	30.039 
08:30	39.9	39.9	39.9	84	35.5	0	2	112	0.00	30.036 
08:35	40.2	40.2	40.2	84	35.8	0	2	112	0.00	30.036 
08:40	40.6	40.6	40.6	84	36.2	0	1	112	0.00	30.036 
08:45	40.9	40.9	40.9	84	36.4	1	2	112	0.00	30.041 
08:50	41.1	41.1	41.1	82	36.0	2	5	90	0.00	30.041 
08:55	41.2	41.2	41.2	82	36.1	3	9	112	0.00	30.041 
09:00	41.3	41.3	41.3	81	35.9	3	7	112	0.00	30.026 
09:05	41.8	41.8	41.8	81	36.4	2	7	112	0.00	30.026 
09:10	42.2	42.2	42.2	79	36.2	2	7	112	0.00	30.026 
09:15	42.1	42.1	42.1	79	36.1	3	9	90	0.00	30.053 
09:20	42.2	42.2	42.2	79	36.2	2	6	90	0.00	30.053 
09:25	42.3	40.0	42.3	78	35.9	4	7	90	0.00	30.053 
09:30	42.2	42.2	42.2	77	35.5	3	7	90	0.00	30.068 
09:35	41.8	41.8	41.8	77	35.1	3	7	90	0.00	30.068 
09:40	41.6	41.6	41.6	78	35.3	2	5	90	0.00	30.068 
09:45	41.6	41.6	41.6	78	35.3	2	4	90	0.00	30.083 
09:50	41.6	41.6	41.6	78	35.3	2	5	90	0.00	30.083 
09:55	41.8	41.8	41.8	77	35.1	3	5	112	0.00	30.083 
10:00	41.8	41.8	41.8	77	35.1	3	6	112	0.00	30.081 
10:05	41.9	41.9	41.9	78	35.5	2	4	112	0.00	30.081 
10:10	41.9	41.9	41.9	78	35.5	3	5	90	0.00	30.081 
10:15	42.1	42.1	42.1	79	36.1	3	6	90	0.00	30.076 
10:20	42.1	42.1	42.1	80	36.4	3	6	90	0.00	30.076 
10:25	41.9	41.9	41.9	80	36.2	3	6	90	0.00	30.076 
10:30	41.9	41.9	41.9	81	36.5	3	5	90	0.00	30.071 
10:35	41.9	39.5	41.9	81	36.5	4	7	90	0.00	30.071 
10:40	41.9	41.9	41.9	81	36.5	3	5	90	0.00	30.071 
10:45	42.1	42.1	42.1	81	36.7	2	6	112	0.00	30.059 
10:50	42.2	42.2	42.2	81	36.8	3	5	112	0.00	30.059 
10:55	42.3	42.3	42.3	81	36.9	2	6	112	0.00	30.059 
11:00	42.6	42.6	42.6	80	36.9	3	9	90	0.00	30.048 
11:05	42.8	42.8	42.8	81	37.4	3	7	112	0.00	30.048 
11:10	42.8	40.6	42.8	80	37.1	4	7	90	0.00	30.048 
11:15	43.1	43.1	43.1	80	37.4	3	8	90	0.00	30.041 
11:20	43.3	43.3	43.3	80	37.6	3	6	90	0.00	30.041 
11:25	43.6	43.6	43.6	81	38.2	2	5	90	0.00	30.041 
11:30	43.9	43.9	43.9	79	37.8	3	6	90	0.00	30.042 
11:35	44.1	44.1	44.1	77	37.4	3	9	90	0.00	30.042 
11:40	44.3	44.3	44.3	77	37.6	3	8	90	0.00	30.042 
11:45	44.6	41.9	44.6	76	37.5	5	9	112	0.00	30.038 
11:50	45.1	42.5	45.1	76	38.0	5	10	90	0.00	30.038 
11:55	45.8	44.0	45.8	75	38.3	4	10	90	0.00	30.038 
12:00	46.1	44.4	46.1	73	37.9	4	9	90	0.00	30.030 
12:05	46.4	44.7	46.4	72	37.9	4	10	90	0.00	30.030 
12:10	46.7	43.7	46.7	71	37.8	6	10	112	0.00	30.030 
12:15	47.4	45.9	47.4	72	38.8	4	10	112	0.00	30.026 
12:20	47.7	44.9	47.7	70	38.4	6	12	90	0.00	30.026 
12:25	48.2	46.1	48.2	69	38.5	5	12	90	0.00	30.026 
12:30	48.3	46.2	48.3	69	38.6	5	14	112	0.00	30.017 
12:35	48.6	47.3	48.6	67	38.1	4	10	112	0.00	30.017 
12:40	48.8	47.5	48.8	66	38.0	4	11	112	0.00	30.017 
12:45	48.5	46.5	48.5	68	38.4	5	11	90	0.00	30.006 
12:50	48.3	46.2	48.3	68	38.2	5	13	112	0.00	30.006 
12:55	48.6	47.3	48.6	68	38.5	4	9	90	0.00	30.006 
13:00	48.9	46.9	48.9	66	38.0	5	12	112	0.00	30.005 
13:05	49.4	48.2	49.4	67	38.9	4	7	90	0.00	30.005 
13:10	49.6	48.4	49.6	66	38.7	4	9	112	0.00	30.005 
13:15	49.8	48.6	49.8	66	38.9	4	10	90	0.00	30.000 
13:20	49.8	48.0	49.8	65	38.5	5	12	90	0.00	30.000 
13:25	50.4	50.4	50.4	65	39.1	4	11	112	0.00	30.000 
13:30	51.0	51.0	51.0	65	39.7	5	11	90	0.00	29.988 
13:35	51.3	51.3	51.3	65	39.9	5	10	112	0.00	29.988 
13:40	51.1	51.1	51.1	65	39.7	6	12	90	0.00	29.988 
13:45	51.1	51.1	51.1	65	39.7	5	12	90	0.00	29.983 
13:50	51.3	51.3	51.3	65	39.9	5	11	90	0.00	29.983 
13:55	51.3	51.3	51.3	66	40.3	7	13	90	0.00	29.983 
14:00	51.4	51.4	51.4	65	40.0	6	13	90	0.00	29.976 
14:05	51.6	51.6	51.6	65	40.2	6	13	90	0.00	29.976 
14:10	51.9	51.9	51.9	66	40.9	6	11	90	0.00	29.976 
14:15	52.3	52.3	52.3	67	41.7	5	11	90	0.00	29.973 
14:20	52.8	52.8	52.8	66	41.8	5	11	90	0.00	29.973 
14:25	52.6	52.6	52.6	66	41.6	7	12	90	0.00	29.973 
14:30	52.8	52.8	52.8	65	41.4	7	13	90	0.00	29.968 
14:35	52.9	52.9	52.9	66	41.9	7	13	90	0.00	29.968 
14:40	53.1	53.1	53.1	67	42.4	6	12	112	0.00	29.968 
14:45	53.8	53.8	53.8	65	42.3	5	10	90	0.00	29.964 
14:50	53.9	53.9	53.9	64	42.0	6	11	90	0.00	29.964 
14:55	54.1	54.1	54.1	64	42.2	6	13	112	0.00	29.964 
15:00	54.2	54.2	54.2	65	42.7	6	11	90	0.00	29.949 
15:05	54.7	54.7	54.7	66	43.6	4	12	112	0.00	29.949 
15:10	55.0	55.0	55.0	65	43.5	5	10	112	0.00	29.949 
15:15	55.1	55.1	55.1	64	43.1	6	12	90	0.00	29.946 
15:20	55.3	55.3	55.3	63	42.9	5	10	112	0.00	29.946 
15:25	55.4	55.4	55.4	63	43.0	6	12	90	0.00	29.946 
15:30	55.6	55.6	55.6	62	42.8	6	12	90	0.00	29.936 
15:35	55.7	55.7	55.7	64	43.7	5	13	90	0.00	29.936 
15:40	55.9	55.9	55.9	62	43.1	5	11	112	0.00	29.936 
15:45	56.3	56.3	56.3	62	43.4	5	10	90	0.00	29.932 
15:50	56.3	56.3	56.3	63	43.9	7	13	90	0.00	29.932 
15:55	56.6	56.6	56.6	62	43.7	7	12	90	0.00	29.932 
16:00	56.6	56.6	56.6	61	43.3	6	11	90	0.00	29.922 
16:05	56.7	56.7	56.7	62	43.8	5	10	112	0.00	29.922 
16:10	57.0	57.0	57.0	62	44.1	4	12	112	0.00	29.922 
16:15	57.2	57.2	57.2	61	43.9	5	10	90	0.00	29.917 
16:20	57.2	57.2	57.2	60	43.4	6	13	90	0.00	29.917 
16:25	57.2	57.2	57.2	60	43.4	6	13	90	0.00	29.917 
16:30	57.3	57.3	57.3	61	44.0	4	7	90	0.00	29.919 
16:35	57.5	57.5	57.5	60	43.7	6	12	90	0.00	29.919 
16:40	57.5	57.5	57.5	61	44.2	5	10	90	0.00	29.919 
16:45	57.8	57.8	57.8	61	44.4	5	10	90	0.00	29.919 
16:50	58.1	58.1	58.1	61	44.7	4	9	112	0.00	29.919 
16:55	58.1	58.1	58.1	61	44.7	4	12	90	0.00	29.919 
17:00	58.1	58.1	58.1	62	45.1	5	10	90	0.00	29.920 
17:05	58.1	58.1	58.1	62	45.1	5	12	112	0.00	29.920 
17:10	58.3	58.3	58.3	62	45.3	4	10	90	0.00	29.920 
17:15	58.3	58.3	58.3	62	45.3	5	12	90	0.00	29.913 
17:20	58.3	58.3	58.3	62	45.3	7	13	90	0.00	29.913 
17:25	58.3	58.3	58.3	63	45.8	7	13	112	0.00	29.913 
17:30	58.3	58.3	58.3	64	46.2	5	12	90	0.00	29.907 
17:35	58.3	58.3	58.3	64	46.2	5	12	90	0.00	29.907 
17:40	58.4	58.4	58.4	63	45.9	5	10	90	0.00	29.907 
17:45	58.4	58.4	58.4	64	46.3	6	12	90	0.00	29.901 
17:50	58.4	58.4	58.4	63	45.9	6	12	112	0.00	29.901 
17:55	58.6	58.6	58.6	63	46.0	5	10	90	0.00	29.901 
18:00	58.7	58.7	58.7	62	45.7	5	10	90	0.00	29.901 
18:05	58.6	58.6	58.6	63	46.0	7	13	90	0.00	29.901 
18:10	58.6	58.6	58.6	62	45.6	6	13	90	0.00	29.901 
18:15	58.3	58.3	58.3	62	45.3	8	15	90	0.00	29.898 
18:20	58.3	58.3	58.3	64	46.2	5	10	112	0.00	29.898 
18:25	58.3	58.3	58.3	63	45.8	6	13	90	0.00	29.898 
18:30	58.3	58.3	58.3	64	46.2	6	13	90	0.00	29.897 
18:35	58.1	58.1	58.1	63	45.6	7	12	90	0.00	29.897 
18:40	58.0	58.0	58.0	64	45.9	6	11	112	0.00	29.897 
18:45	58.0	58.0	58.0	64	45.9	5	11	90	0.00	29.896 
18:50	58.0	58.0	58.0	64	45.9	5	12	90	0.00	29.896 
18:55	58.0	58.0	58.0	64	45.9	4	11	90	0.00	29.896 
19:00	58.0	58.0	58.0	64	45.9	4	11	90	0.00	29.898 
19:05	58.0	58.0	58.0	64	45.9	5	11	90	0.00	29.898 
19:10	58.0	58.0	58.0	64	45.9	5	9	112	0.00	29.898 
19:15	57.8	57.8	57.8	64	45.7	6	14	90	0.00	29.898 
19:20	57.6	57.6	57.6	64	45.5	7	14	90	0.00	29.898 
19:25	57.6	57.6	57.6	65	45.9	5	10	112	0.00	29.898 
19:30	57.5	57.5	57.5	65	45.8	4	10	90	0.00	29.891 
19:35	57.3	57.3	57.3	65	45.6	6	11	90	0.00	29.891 
19:40	57.2	57.2	57.2	65	45.5	6	13	90	0.00	29.891 
19:45	57.0	57.0	57.0	66	45.8	5	9	90	0.00	29.885 
19:50	56.7	56.7	56.7	67	45.9	4	9	90	0.00	29.885 
19:55	56.6	56.6	56.6	67	45.8	5	12	90	0.00	29.885 
20:00	56.3	56.3	56.3	68	45.9	4	7	90	0.00	29.886 
20:05	56.0	56.0	56.0	69	46.0	4	9	112	0.00	29.886 
20:10	55.6	55.6	55.6	70	46.0	4	9	112	0.00	29.886 
20:15	55.3	55.3	55.3	70	45.7	5	9	90	0.00	29.883 
20:20	55.0	55.0	55.0	71	45.8	5	9	90	0.00	29.883 
20:25	54.8	54.8	54.8	71	45.6	4	10	90	0.00	29.883 
20:30	54.5	54.5	54.5	72	45.7	5	10	90	0.00	29.881 
20:35	54.4	54.4	54.4	72	45.6	4	8	90	0.00	29.881 
20:40	54.2	54.2	54.2	72	45.4	4	7	90	0.00	29.881 
20:45	54.1	54.1	54.1	73	45.6	4	10	90	0.00	29.884 
20:50	54.1	54.1	54.1	73	45.6	4	12	90	0.00	29.884 
20:55	53.9	53.9	53.9	73	45.4	4	9	90	0.00	29.884 
21:00	53.8	53.8	53.8	73	45.3	4	9	90	0.00	29.878 
21:05	53.5	53.5	53.5	74	45.4	4	10	90	0.00	29.878 
21:10	53.2	53.2	53.2	75	45.5	3	7	112	0.00	29.878 
21:15	52.9	52.9	52.9	75	45.2	3	7	90	0.00	29.872 
21:20	52.8	52.8	52.8	76	45.4	4	9	90	0.00	29.872 
21:25	52.6	52.6	52.6	76	45.3	4	9	112	0.00	29.872 
21:30	52.5	52.5	52.5	77	45.5	4	7	90	0.00	29.878 
21:35	52.2	52.2	52.2	77	45.2	4	10	90	0.00	29.878 
21:40	52.0	52.0	52.0	77	45.0	4	7	90	0.00	29.878 
21:45	51.6	51.6	51.6	78	45.0	4	7	90	0.00	29.884 
21:50	51.1	51.1	51.1	78	44.5	4	9	112	0.00	29.884 
21:55	50.7	50.7	50.7	79	44.4	3	7	90	0.00	29.884 
22:00	50.2	50.2	50.2	80	44.3	3	7	90	0.00	29.889 
22:05	49.8	48.6	49.8	81	44.2	4	7	90	0.00	29.889 
22:10	49.5	47.6	49.5	81	43.9	5	10	90	0.00	29.889 
22:15	49.2	49.2	49.2	82	43.9	2	7	90	0.00	29.892 
22:20	48.8	48.8	48.8	83	43.9	3	7	90	0.00	29.892 
22:25	48.3	48.3	48.3	83	43.4	3	6	90	0.00	29.892 
22:30	48.0	46.6	48.0	83	43.1	4	7	90	0.00	29.891 
22:35	47.7	46.2	47.7	84	43.1	4	7	90	0.00	29.891 
22:40	47.6	46.1	47.6	84	43.0	4	6	90	0.00	29.891 
22:45	47.4	45.9	47.4	84	42.8	4	6	90	0.00	29.890 
22:50	47.1	47.1	47.1	84	42.5	3	8	90	0.00	29.890 
22:55	47.0	47.0	47.0	84	42.4	3	6	90	0.00	29.890 
23:00	46.8	45.2	46.8	85	42.5	4	6	90	0.00	29.886 
23:05	46.7	45.1	46.7	85	42.4	4	7	112	0.00	29.886 
23:10	46.5	44.8	46.5	85	42.2	4	9	90	0.00	29.886 
23:15	46.4	44.7	46.4	85	42.1	4	7	90	0.00	29.877 
23:20	46.2	44.5	46.2	85	41.9	4	10	90	0.00	29.877 
23:25	46.1	46.1	46.1	85	41.8	3	5	90	0.00	29.877 
23:30	46.0	44.2	46.0	86	42.0	4	7	90	0.00	29.874 
23:35	45.8	45.8	45.8	86	41.9	3	6	90	0.00	29.874 
23:40	45.8	45.8	45.8	86	41.9	3	5	90	0.00	29.874 
23:45	45.7	45.7	45.7	86	41.8	2	5	90	0.00	29.872 
23:50	45.5	45.5	45.5	86	41.6	2	5	112	0.00	29.872 
23:55	45.4	45.4	45.4	86	41.5	2	5	90	0.00	29.872 

CoCoRaHS
IN-AL-39
A2 Web Hosting
Creative Commons License
GoDaddy
search engine by freefind advanced

loaded 2018-11-15 13:42:02 • last modified 2010-11-18 10:43:29
Privacy PolicyDisclaimer
• wx.awcolley.com is powered by PmWiki v.2002016 •
• all content (unless otherwise noted) © 2018 A W Colley